createdAt,value
2022-09-03T00:01:16.758Z,5.07
2022-09-03T00:03:43.139Z,5.04
2022-09-03T00:06:09.488Z,5.45
2022-09-03T00:08:35.850Z,5.65
2022-09-03T00:11:04.338Z,5.40
2022-09-03T00:13:30.689Z,5.93
2022-09-03T00:15:57.083Z,5.75
2022-09-03T00:18:23.646Z,5.65
2022-09-03T00:20:50.089Z,5.85
2022-09-03T00:23:16.444Z,5.58
2022-09-03T00:25:42.790Z,5.50
2022-09-03T00:28:09.149Z,5.42
2022-09-03T00:30:35.499Z,5.77
2022-09-03T00:33:01.850Z,5.37
2022-09-03T00:35:28.197Z,5.49
2022-09-03T00:37:54.547Z,5.55
2022-09-03T00:40:20.899Z,5.50
2022-09-03T00:42:47.266Z,5.41
2022-09-03T00:45:13.623Z,5.07
2022-09-03T00:47:39.975Z,4.81
2022-09-03T00:50:06.330Z,5.10
2022-09-03T00:52:33.722Z,4.64
2022-09-03T00:55:00.219Z,4.97
2022-09-03T00:57:26.578Z,5.80
2022-09-03T00:59:52.927Z,5.61
2022-09-03T01:02:19.332Z,5.19
2022-09-03T01:04:45.767Z,5.09
2022-09-03T01:07:12.123Z,4.45
2022-09-03T01:09:38.488Z,4.20
2022-09-03T01:12:04.829Z,4.11
2022-09-03T01:14:31.177Z,3.87
2022-09-03T01:16:57.525Z,3.59
2022-09-03T01:19:23.882Z,3.71
2022-09-03T01:21:50.234Z,3.40
2022-09-03T01:24:16.590Z,3.34
2022-09-03T01:26:42.945Z,3.18
2022-09-03T01:29:09.299Z,3.68
2022-09-03T01:31:35.644Z,3.11
2022-09-03T01:34:01.993Z,2.78
2022-09-03T01:36:28.345Z,2.94
2022-09-03T01:38:54.696Z,2.89
2022-09-03T01:41:21.052Z,2.94
2022-09-03T01:43:47.414Z,2.88
2022-09-03T01:46:13.817Z,2.60
2022-09-03T01:48:41.682Z,2.67
2022-09-03T01:51:08.035Z,2.72
2022-09-03T01:53:34.391Z,2.51
2022-09-03T01:56:00.741Z,2.67
2022-09-03T01:58:27.092Z,2.37
2022-09-03T02:00:53.453Z,2.48
2022-09-03T02:03:19.799Z,2.71
2022-09-03T02:05:46.159Z,2.36
2022-09-03T02:08:12.527Z,2.40
2022-09-03T02:10:39.324Z,2.53
2022-09-03T02:13:05.671Z,2.59
2022-09-03T02:15:32.074Z,2.47
2022-09-03T02:17:58.441Z,2.54
2022-09-03T02:20:24.810Z,2.55
2022-09-03T02:22:51.146Z,2.41
2022-09-03T02:25:17.497Z,2.33
2022-09-03T02:27:43.845Z,2.57
2022-09-03T02:30:10.200Z,2.52
2022-09-03T02:32:36.563Z,2.46
2022-09-03T02:35:02.921Z,2.35
2022-09-03T02:37:29.278Z,2.52
2022-09-03T02:39:55.673Z,2.36
2022-09-03T02:42:22.075Z,2.33
2022-09-03T02:44:48.438Z,2.39
2022-09-03T02:47:14.777Z,2.48
2022-09-03T02:49:41.138Z,2.35
2022-09-03T02:52:07.482Z,2.65
2022-09-03T02:54:33.822Z,2.40
2022-09-03T02:57:00.172Z,2.52
2022-09-03T02:59:26.517Z,2.38
2022-09-03T03:01:52.920Z,2.34
2022-09-03T03:04:19.286Z,2.52
2022-09-03T03:06:47.592Z,2.30
2022-09-03T03:09:14.270Z,2.52
2022-09-03T03:11:40.618Z,2.47
2022-09-03T03:14:06.974Z,2.46
2022-09-03T03:16:33.376Z,2.61
2022-09-03T03:18:59.756Z,2.30
2022-09-03T03:21:26.119Z,2.41
2022-09-03T03:23:52.475Z,2.53
2022-09-03T03:26:18.833Z,2.27
2022-09-03T03:28:45.182Z,2.47
2022-09-03T03:31:11.651Z,2.51
2022-09-03T03:33:38.106Z,2.79
2022-09-03T03:36:04.458Z,2.41
2022-09-03T03:38:30.816Z,2.51
2022-09-03T03:40:57.163Z,2.37
2022-09-03T03:43:23.531Z,2.50
2022-09-03T03:45:49.910Z,2.57
2022-09-03T03:48:16.298Z,2.42
2022-09-03T03:50:42.653Z,2.28
2022-09-03T03:53:09.003Z,2.68
2022-09-03T03:55:35.432Z,2.47
2022-09-03T03:58:01.789Z,2.48
2022-09-03T04:00:28.147Z,2.42
2022-09-03T04:02:54.531Z,2.35
2022-09-03T04:05:23.240Z,2.32
2022-09-03T04:07:50.422Z,2.36
2022-09-03T04:10:16.776Z,2.60
2022-09-03T04:12:43.124Z,2.55
2022-09-03T04:15:09.468Z,2.41
2022-09-03T04:17:35.826Z,2.64
2022-09-03T04:20:02.178Z,2.58
2022-09-03T04:22:28.524Z,2.52
2022-09-03T04:24:54.875Z,2.66
2022-09-03T04:27:21.246Z,2.47
2022-09-03T04:29:47.691Z,2.82
2022-09-03T04:32:14.040Z,2.47
2022-09-03T04:34:40.413Z,2.70
2022-09-03T04:37:06.778Z,2.70
2022-09-03T04:39:33.177Z,2.33
2022-09-03T04:42:00.182Z,2.69
2022-09-03T04:44:26.612Z,2.53
2022-09-03T04:46:52.958Z,2.81
2022-09-03T04:49:19.324Z,2.67
2022-09-03T04:51:45.675Z,2.70
2022-09-03T04:54:12.027Z,2.40
2022-09-03T04:56:38.371Z,2.86
2022-09-03T04:59:04.713Z,2.83
2022-09-03T05:01:32.286Z,2.85
2022-09-03T05:03:58.736Z,2.67
2022-09-03T05:06:25.095Z,2.94
2022-09-03T05:08:51.462Z,3.04
2022-09-03T05:11:17.887Z,2.93
2022-09-03T05:13:44.230Z,3.08
2022-09-03T05:16:10.614Z,3.01
2022-09-03T05:18:37.016Z,2.73
2022-09-03T05:21:03.374Z,2.87
2022-09-03T05:23:31.452Z,3.01
2022-09-03T05:26:00.691Z,2.98
2022-09-03T05:28:27.034Z,3.34
2022-09-03T05:30:53.381Z,2.94
2022-09-03T05:33:19.733Z,2.98
2022-09-03T05:35:46.077Z,3.03
2022-09-03T05:38:12.422Z,3.13
2022-09-03T05:40:38.871Z,2.89
2022-09-03T05:43:08.430Z,3.02
2022-09-03T05:45:35.064Z,3.15
2022-09-03T05:48:01.438Z,3.35
2022-09-03T05:50:27.785Z,3.34
2022-09-03T05:52:54.136Z,3.14
2022-09-03T05:55:20.524Z,3.01
2022-09-03T05:57:46.870Z,3.22
2022-09-03T06:00:13.222Z,2.91
2022-09-03T06:02:39.695Z,2.99
2022-09-03T06:05:06.161Z,3.12
2022-09-03T06:07:32.510Z,3.06
2022-09-03T06:09:58.860Z,3.27
2022-09-03T06:12:25.222Z,3.21
2022-09-03T06:14:51.588Z,2.79
2022-09-03T06:17:17.929Z,2.93
2022-09-03T06:19:44.277Z,2.84
2022-09-03T06:22:10.647Z,2.91
2022-09-03T06:24:36.993Z,3.02
2022-09-03T06:27:03.351Z,2.83
2022-09-03T06:29:29.700Z,2.97
2022-09-03T06:31:56.125Z,3.07
2022-09-03T06:34:23.362Z,3.05
2022-09-03T06:36:49.716Z,3.13
2022-09-03T06:39:16.057Z,2.98
2022-09-03T06:41:42.403Z,2.78
2022-09-03T06:44:08.811Z,3.04
2022-09-03T06:46:35.210Z,3.09
2022-09-03T06:49:01.574Z,2.82
2022-09-03T06:51:27.927Z,3.04
2022-09-03T06:53:54.286Z,2.75
2022-09-03T06:56:20.644Z,2.84
2022-09-03T06:58:46.997Z,2.61
2022-09-03T07:01:13.497Z,2.62
2022-09-03T07:03:39.972Z,2.63
2022-09-03T07:06:06.340Z,2.75
2022-09-03T07:08:32.691Z,2.51
2022-09-03T07:10:59.052Z,2.73
2022-09-03T07:13:25.393Z,2.70
2022-09-03T07:15:51.786Z,2.65
2022-09-03T07:18:18.168Z,2.49
2022-09-03T07:20:44.523Z,2.46
2022-09-03T07:23:10.879Z,2.44
2022-09-03T07:25:37.255Z,2.53
2022-09-03T07:28:03.619Z,2.62
2022-09-03T07:30:29.975Z,2.41
2022-09-03T07:32:56.345Z,2.92
2022-09-03T07:35:22.703Z,2.79
2022-09-03T07:37:49.050Z,2.95
2022-09-03T07:40:15.399Z,2.81
2022-09-03T07:42:41.753Z,2.94
2022-09-03T07:45:08.114Z,2.88
2022-09-03T07:47:34.473Z,3.16
2022-09-03T07:50:00.826Z,3.42
2022-09-03T07:52:27.191Z,3.74
2022-09-03T07:54:53.546Z,3.79
2022-09-03T07:57:19.894Z,3.85
2022-09-03T07:59:46.247Z,2.47
2022-09-03T08:02:12.605Z,2.40
2022-09-03T08:04:38.949Z,2.30
2022-09-03T08:07:05.304Z,2.07
2022-09-03T08:09:31.679Z,1.85
2022-09-03T08:11:58.035Z,1.99
2022-09-03T08:14:24.396Z,2.29
2022-09-03T08:16:50.765Z,2.24
2022-09-03T08:19:17.130Z,2.02
2022-09-03T08:21:43.503Z,2.09
2022-09-03T08:24:09.850Z,2.11
2022-09-03T08:26:36.215Z,2.02
2022-09-03T08:29:02.610Z,2.08
2022-09-03T08:31:29.015Z,2.12
2022-09-03T08:33:55.418Z,2.11
2022-09-03T08:36:21.781Z,1.93
2022-09-03T08:38:48.317Z,1.94
2022-09-03T08:41:14.671Z,1.98
2022-09-03T08:43:41.024Z,1.85
2022-09-03T08:46:07.413Z,1.89
2022-09-03T08:48:33.804Z,1.98
2022-09-03T08:51:00.188Z,2.03
2022-09-03T08:53:26.572Z,2.09
2022-09-03T08:55:52.926Z,2.00
2022-09-03T08:58:19.359Z,1.93
2022-09-03T09:00:45.751Z,1.79
2022-09-03T09:03:12.097Z,1.76
2022-09-03T09:05:38.446Z,1.94
2022-09-03T09:08:04.943Z,2.13
2022-09-03T09:10:31.301Z,1.84
2022-09-03T09:12:57.655Z,2.02
2022-09-03T09:15:24.007Z,1.97
2022-09-03T09:17:50.378Z,2.02
2022-09-03T09:20:16.729Z,1.92
2022-09-03T09:22:43.077Z,2.25
2022-09-03T09:25:13.601Z,2.37
2022-09-03T09:27:39.955Z,2.58
2022-09-03T09:30:06.313Z,2.39
2022-09-03T09:32:32.679Z,2.25
2022-09-03T09:34:59.038Z,2.38
2022-09-03T09:37:25.421Z,2.33
2022-09-03T09:39:51.843Z,2.60
2022-09-03T09:42:18.250Z,2.37
2022-09-03T09:44:44.598Z,2.46
2022-09-03T09:47:10.950Z,2.22
2022-09-03T09:49:37.289Z,2.26
2022-09-03T09:52:03.639Z,2.76
2022-09-03T09:54:30.001Z,2.67
2022-09-03T09:56:56.345Z,2.63
2022-09-03T09:59:22.698Z,2.77
2022-09-03T10:01:49.114Z,2.97
2022-09-03T10:04:15.540Z,6.04
2022-09-03T10:06:41.902Z,6.89
2022-09-03T10:09:08.320Z,8.69
2022-09-03T10:11:34.721Z,10.39
2022-09-03T10:14:01.126Z,11.17
2022-09-03T10:16:27.557Z,12.41
2022-09-03T10:18:53.907Z,12.65
2022-09-03T10:21:20.532Z,12.62
2022-09-03T10:23:46.884Z,12.38
2022-09-03T10:26:13.292Z,12.69
2022-09-03T10:28:39.648Z,12.77
2022-09-03T10:31:06.042Z,11.92
2022-09-03T10:33:32.447Z,11.68
2022-09-03T10:35:58.842Z,11.90
2022-09-03T10:38:25.389Z,11.20
2022-09-03T10:40:51.860Z,10.67
2022-09-03T10:43:19.757Z,9.95
2022-09-03T10:45:46.123Z,10.21
2022-09-03T10:48:12.475Z,9.29
2022-09-03T10:50:38.917Z,9.09
2022-09-03T10:53:05.395Z,8.89
2022-09-03T10:55:31.737Z,8.45
2022-09-03T10:57:58.088Z,8.69
2022-09-03T11:00:24.450Z,8.64
2022-09-03T11:02:50.854Z,8.11
2022-09-03T11:05:17.249Z,8.23
2022-09-03T11:07:43.607Z,7.95
2022-09-03T11:10:09.957Z,7.56
2022-09-03T11:12:36.330Z,7.56
2022-09-03T11:15:02.684Z,7.43
2022-09-03T11:17:29.047Z,7.22
2022-09-03T11:19:58.551Z,7.74
2022-09-03T11:22:24.909Z,7.71
2022-09-03T11:24:51.268Z,7.30
2022-09-03T11:27:17.620Z,7.10
2022-09-03T11:29:43.971Z,7.21
2022-09-03T11:32:10.338Z,6.87
2022-09-03T11:34:36.692Z,6.79
2022-09-03T11:37:03.136Z,7.04
2022-09-03T11:39:29.506Z,6.93
2022-09-03T11:41:55.914Z,6.67
2022-09-03T11:44:22.272Z,6.26
2022-09-03T11:46:48.624Z,6.38
2022-09-03T11:49:14.977Z,6.55
2022-09-03T11:51:41.336Z,6.30
2022-09-03T11:54:07.688Z,6.38
2022-09-03T11:56:35.995Z,6.25
2022-09-03T11:59:02.339Z,6.39
2022-09-03T12:01:28.689Z,6.14
2022-09-03T12:03:55.044Z,6.27
2022-09-03T12:06:21.402Z,6.15
2022-09-03T12:08:47.775Z,5.71
2022-09-03T12:11:14.120Z,6.04
2022-09-03T12:13:40.486Z,6.08
2022-09-03T12:16:06.876Z,6.06
2022-09-03T12:18:33.262Z,5.64
2022-09-03T12:20:59.639Z,5.85
2022-09-03T12:23:25.978Z,5.91
2022-09-03T12:25:52.341Z,5.83
2022-09-03T12:28:18.706Z,5.61
2022-09-03T12:30:45.098Z,5.58
2022-09-03T12:33:11.493Z,5.73
2022-09-03T12:38:24.228Z,5.58
2022-09-03T12:43:37.989Z,5.17
2022-09-03T12:46:12.480Z,5.02
2022-09-03T12:48:43.552Z,5.33
2022-09-03T12:53:56.855Z,4.94
2022-09-03T12:56:23.207Z,5.14
2022-09-03T12:58:49.549Z,5.20
2022-09-03T13:01:15.946Z,4.89
2022-09-03T13:03:42.356Z,5.09
2022-09-03T13:06:08.713Z,4.96
2022-09-03T13:08:35.067Z,4.96
2022-09-03T13:11:01.418Z,4.58
2022-09-03T13:13:27.763Z,4.71
2022-09-03T13:15:54.115Z,4.87
2022-09-03T13:18:20.483Z,4.68
2022-09-03T13:20:46.831Z,5.04
2022-09-03T13:23:13.218Z,4.61
2022-09-03T13:25:39.581Z,4.44
2022-09-03T13:28:05.925Z,4.62
2022-09-03T13:30:32.349Z,4.42
2022-09-03T13:32:59.485Z,4.55
2022-09-03T13:35:25.943Z,4.68
2022-09-03T13:37:52.291Z,4.17
2022-09-03T13:40:18.643Z,4.39
2022-09-03T13:42:44.994Z,4.70
2022-09-03T13:45:11.347Z,4.60
2022-09-03T13:47:37.699Z,4.75
2022-09-03T13:50:04.051Z,4.35
2022-09-03T13:52:30.409Z,4.34
2022-09-03T13:54:56.806Z,4.12
2022-09-03T13:57:23.159Z,4.00
2022-09-03T13:59:49.592Z,4.52
2022-09-03T14:02:16.021Z,4.05
2022-09-03T14:04:42.455Z,4.73
2022-09-03T14:07:08.817Z,6.66
2022-09-03T14:09:35.165Z,9.09
2022-09-03T14:12:01.523Z,10.83
2022-09-03T14:14:27.883Z,11.05
2022-09-03T14:16:54.287Z,10.50
2022-09-03T14:19:20.650Z,10.87
2022-09-03T14:21:47.024Z,10.97
2022-09-03T14:24:13.386Z,11.01
2022-09-03T14:26:40.162Z,10.45
2022-09-03T14:29:06.586Z,11.09
2022-09-03T14:31:32.979Z,10.82
2022-09-03T14:33:59.383Z,10.51
2022-09-03T14:36:25.737Z,10.64
2022-09-03T14:38:52.087Z,10.19
2022-09-03T14:41:18.434Z,10.15
2022-09-03T14:43:44.791Z,10.14
2022-09-03T14:46:11.214Z,9.60
2022-09-03T14:48:37.582Z,9.69
2022-09-03T14:51:03.931Z,9.23
2022-09-03T14:53:30.283Z,9.15
2022-09-03T14:55:56.661Z,9.22
2022-09-03T14:58:23.022Z,8.43
2022-09-03T15:00:49.423Z,8.19
2022-09-03T15:03:15.898Z,7.13
2022-09-03T15:05:42.341Z,7.20
2022-09-03T15:08:08.704Z,7.00
2022-09-03T15:10:35.054Z,7.14
2022-09-03T15:13:01.413Z,6.85
2022-09-03T15:15:27.776Z,6.44
2022-09-03T15:17:54.164Z,6.37
2022-09-03T15:20:20.525Z,6.48
2022-09-03T15:22:49.896Z,6.56
2022-09-03T15:25:16.582Z,6.19
2022-09-03T15:27:42.937Z,5.97
2022-09-03T15:30:09.287Z,5.74
2022-09-03T15:32:35.651Z,5.53
2022-09-03T15:35:01.999Z,5.80
2022-09-03T15:37:28.356Z,5.46
2022-09-03T15:39:54.817Z,5.62
2022-09-03T15:42:21.199Z,5.68
2022-09-03T15:44:47.556Z,5.29
2022-09-03T15:47:14.586Z,4.91
2022-09-03T15:49:41.065Z,4.68
2022-09-03T15:52:07.420Z,4.45
2022-09-03T15:54:33.785Z,4.61
2022-09-03T15:57:00.142Z,4.62
2022-09-03T15:59:26.513Z,4.65
2022-09-03T16:01:52.862Z,4.57
2022-09-03T16:04:19.230Z,4.40
2022-09-03T16:06:45.579Z,4.48
2022-09-03T16:09:11.931Z,4.30
2022-09-03T16:11:38.303Z,4.20
2022-09-03T16:14:04.668Z,4.48
2022-09-03T16:16:31.114Z,3.96
2022-09-03T16:18:57.540Z,4.00
2022-09-03T16:21:23.913Z,4.04
2022-09-03T16:23:50.271Z,4.18
2022-09-03T16:26:16.617Z,3.92
2022-09-03T16:28:42.979Z,3.76
2022-09-03T16:31:09.422Z,4.15
2022-09-03T16:33:35.794Z,4.12
2022-09-03T16:36:02.162Z,4.22
2022-09-03T16:38:28.530Z,4.06
2022-09-03T16:40:54.884Z,3.74
2022-09-03T16:43:39.317Z,3.68
2022-09-03T16:46:07.305Z,3.88
2022-09-03T16:48:33.700Z,4.04
2022-09-03T16:51:00.062Z,3.73
2022-09-03T16:53:26.526Z,3.95
2022-09-03T16:55:52.979Z,3.60
2022-09-03T16:58:19.347Z,3.82
2022-09-03T17:00:45.808Z,3.51
2022-09-03T17:03:12.326Z,3.80
2022-09-03T17:05:38.677Z,3.86
2022-09-03T17:08:06.913Z,3.82
2022-09-03T17:10:33.249Z,3.54
2022-09-03T17:12:59.607Z,3.54
2022-09-03T17:15:25.950Z,3.84
2022-09-03T17:17:52.304Z,3.68
2022-09-03T17:20:18.655Z,3.77
2022-09-03T17:22:45.023Z,3.55
2022-09-03T17:25:11.380Z,3.75
2022-09-03T17:27:37.743Z,3.52
2022-09-03T17:30:04.097Z,3.45
2022-09-03T17:32:30.456Z,3.49
2022-09-03T17:34:56.820Z,3.42
2022-09-03T17:37:23.167Z,3.65
2022-09-03T17:39:49.558Z,3.52
2022-09-03T17:42:16.040Z,3.56
2022-09-03T17:44:46.740Z,3.56
2022-09-03T17:47:13.109Z,3.66
2022-09-03T17:49:39.464Z,4.17
2022-09-03T17:52:05.813Z,3.79
2022-09-03T17:54:32.183Z,4.11
2022-09-03T17:56:58.626Z,4.06
2022-09-03T17:59:24.965Z,3.74
2022-09-03T18:01:51.375Z,3.50
2022-09-03T18:04:19.515Z,3.07
2022-09-03T18:06:45.915Z,2.52
2022-09-03T18:09:12.282Z,2.57
2022-09-03T18:11:38.679Z,2.49
2022-09-03T18:14:05.040Z,2.89
2022-09-03T18:16:31.455Z,3.06
2022-09-03T18:18:57.870Z,3.02
2022-09-03T18:21:29.046Z,3.17
2022-09-03T18:23:57.750Z,3.20
2022-09-03T18:26:24.096Z,3.08
2022-09-03T18:28:50.450Z,2.90
2022-09-03T18:31:16.853Z,3.03
2022-09-03T18:33:43.274Z,3.09
2022-09-03T18:36:10.700Z,3.05
2022-09-03T18:38:37.064Z,3.06
2022-09-03T18:41:03.416Z,3.33
2022-09-03T18:43:29.778Z,2.96
2022-09-03T18:46:45.963Z,2.96
2022-09-03T18:48:42.549Z,3.09
2022-09-03T18:51:08.963Z,2.70
2022-09-03T18:53:35.354Z,2.87
2022-09-03T18:56:01.713Z,2.96
2022-09-03T18:58:28.063Z,2.83
2022-09-03T19:00:54.421Z,2.61
2022-09-03T19:03:20.792Z,2.73
2022-09-03T19:05:47.149Z,2.65
2022-09-03T19:08:13.498Z,2.95
2022-09-03T19:10:39.845Z,2.86
2022-09-03T19:13:06.196Z,2.65
2022-09-03T19:15:33.630Z,2.62
2022-09-03T19:18:00.100Z,2.87
2022-09-03T19:20:26.453Z,2.96
2022-09-03T19:22:52.810Z,2.51
2022-09-03T19:25:19.159Z,2.71
2022-09-03T19:27:56.911Z,2.60
2022-09-03T19:30:25.856Z,2.76
2022-09-03T19:32:52.228Z,2.73
2022-09-03T19:35:18.583Z,2.73
2022-09-03T19:37:44.950Z,2.77
2022-09-03T19:40:11.302Z,2.57
2022-09-03T19:42:37.650Z,2.64
2022-09-03T19:45:04.949Z,2.46
2022-09-03T19:47:31.312Z,2.59
2022-09-03T19:49:57.663Z,2.49
2022-09-03T19:52:24.007Z,2.44
2022-09-03T19:54:50.368Z,2.58
2022-09-03T19:57:16.728Z,2.45
2022-09-03T19:59:43.077Z,2.52
2022-09-03T20:02:09.430Z,2.48
2022-09-03T20:04:35.787Z,2.35
2022-09-03T20:07:02.151Z,2.60
2022-09-03T20:09:28.498Z,2.35
2022-09-03T20:11:54.865Z,2.55
2022-09-03T20:14:21.216Z,2.33
2022-09-03T20:16:47.571Z,2.55
2022-09-03T20:19:13.932Z,2.69
2022-09-03T20:21:40.295Z,2.46
2022-09-03T20:24:06.751Z,2.46
2022-09-03T20:26:33.110Z,2.58
2022-09-03T20:28:59.464Z,2.41
2022-09-03T20:31:25.875Z,2.43
2022-09-03T20:33:52.300Z,2.47
2022-09-03T20:36:18.650Z,2.38
2022-09-03T20:38:45.005Z,2.29
2022-09-03T20:41:11.359Z,2.22
2022-09-03T20:43:37.719Z,2.38
2022-09-03T20:46:04.134Z,2.24
2022-09-03T20:48:30.507Z,2.56
2022-09-03T20:50:56.842Z,2.42
2022-09-03T20:53:23.201Z,2.49
2022-09-03T20:55:49.554Z,2.31
2022-09-03T20:58:15.906Z,2.39
2022-09-03T21:00:42.262Z,2.63
2022-09-03T21:03:08.645Z,2.55
2022-09-03T21:05:34.990Z,2.24
2022-09-03T21:08:01.389Z,2.25
2022-09-03T21:10:27.735Z,2.24
2022-09-03T21:12:54.082Z,2.44
2022-09-03T21:15:20.446Z,2.44
2022-09-03T21:17:46.798Z,2.08
2022-09-03T21:20:13.154Z,2.34
2022-09-03T21:22:39.524Z,2.22
2022-09-03T21:25:05.959Z,2.30
2022-09-03T21:27:32.310Z,2.22
2022-09-03T21:29:58.675Z,2.06
2022-09-03T21:32:27.437Z,2.70
2022-09-03T21:34:53.799Z,2.97
2022-09-03T21:37:20.155Z,2.86
2022-09-03T21:39:46.599Z,2.71
2022-09-03T21:42:13.039Z,2.75
2022-09-03T21:44:39.398Z,2.85
2022-09-03T21:47:05.747Z,2.73
2022-09-03T21:49:32.109Z,2.63
2022-09-03T21:51:58.469Z,2.61
2022-09-03T21:54:24.830Z,2.63
2022-09-03T21:56:51.190Z,2.79
2022-09-03T21:59:17.561Z,2.80
2022-09-03T22:01:43.962Z,2.48
2022-09-03T22:04:10.333Z,2.72
2022-09-03T22:06:36.702Z,2.69
2022-09-03T22:09:03.121Z,2.37
2022-09-03T22:11:29.512Z,2.46
2022-09-03T22:13:55.963Z,2.63
2022-09-03T22:16:22.388Z,2.70
2022-09-03T22:18:48.774Z,2.46
2022-09-03T22:21:15.127Z,2.64
2022-09-03T22:23:41.489Z,2.68
2022-09-03T22:26:07.832Z,2.47
2022-09-03T22:28:34.182Z,2.46
2022-09-03T22:31:00.601Z,2.54
2022-09-03T22:33:26.995Z,2.48
2022-09-03T22:35:53.355Z,2.66
2022-09-03T22:38:19.747Z,2.58
2022-09-03T22:40:46.156Z,2.47
2022-09-03T22:43:18.714Z,2.33
2022-09-03T22:45:45.137Z,2.61
2022-09-03T22:48:11.531Z,2.38
2022-09-03T22:50:37.894Z,2.41
2022-09-03T22:53:04.251Z,2.83
2022-09-03T22:55:30.602Z,2.51
2022-09-03T22:57:56.944Z,2.21
2022-09-03T23:00:23.301Z,2.47
2022-09-03T23:02:49.669Z,2.43
2022-09-03T23:05:16.855Z,2.37
2022-09-03T23:07:43.211Z,2.41
2022-09-03T23:10:09.570Z,2.29
2022-09-03T23:12:35.932Z,2.25
2022-09-03T23:15:02.285Z,2.56
2022-09-03T23:19:53.879Z,2.26
2022-09-03T23:22:20.239Z,2.35
2022-09-03T23:24:46.589Z,2.42
2022-09-03T23:27:12.945Z,2.40
2022-09-03T23:29:39.302Z,2.48
2022-09-03T23:32:05.689Z,2.57
2022-09-03T23:34:32.077Z,2.64
2022-09-03T23:37:22.526Z,2.22
2022-09-03T23:39:44.795Z,2.21
2022-09-03T23:42:11.177Z,2.39
2022-09-03T23:44:37.547Z,2.65
2022-09-03T23:47:03.903Z,2.51
2022-09-03T23:49:30.248Z,2.44
2022-09-03T23:51:56.607Z,2.56
2022-09-03T23:54:22.963Z,2.69
2022-09-03T23:56:49.317Z,2.32
2022-09-03T23:59:15.670Z,2.59
